ADDS METAR Data INFO
IDs: Format: Raw Decoded Include TAF

Data at: 0458 UTC 16 Aug 2018

KETN 160455Z AUTO 00000KT 10SM CLR 22/20 A2998 RMK AO2 T02220195
KETN 160435Z AUTO 00000KT 10SM CLR 23/19 A2997 RMK AO2 T02260195
KETN 160415Z AUTO 00000KT 10SM CLR 23/20 A2997 RMK AO2 T02300195
KETN 160355Z AUTO 00000KT 10SM CLR 23/20 A2997 RMK AO2 T02310198
KETN 160335Z AUTO 00000KT 10SM CLR 24/20 A2997 RMK AO2 T02370201
KETN 160315Z AUTO 00000KT 10SM CLR 25/20 A2997 RMK AO2 T02480199
KETN 160255Z AUTO 00000KT 10SM CLR 27/19 A2996 RMK AO2 T02710192
KETN 160235Z AUTO 16003KT 10SM CLR 28/19 A2995 RMK AO2 T02780194
KETN 160215Z AUTO 14003KT 10SM CLR 28/19 A2995 RMK AO2 T02800193
KETN 160155Z AUTO 14003KT 10SM CLR 29/19 A2994 RMK AO2 T02920190
KETN 160135Z AUTO 14005KT 10SM CLR 30/19 A2993 RMK AO2 T02960192
KETN 160115Z AUTO 14004KT 10SM CLR 30/19 A2993 RMK AO2 T03040191
KETN 160055Z AUTO 15005KT 10SM CLR 32/19 A2992 RMK AO2 T03150193
KETN 160035Z AUTO 15006KT 10SM CLR 32/19 A2991 RMK AO2 T03240189
KETN 160015Z AUTO 17008KT 10SM CLR 33/19 A2992 RMK AO2 T03310188
KETN 152355Z AUTO 16009KT 10SM CLR 33/19 A2992 RMK AO2 T03350189 10347 20314 403470203
KETN 152335Z AUTO 17011KT 10SM CLR 34/19 A2992 RMK AO2 T03380192
KETN 152315Z AUTO 18009KT 10SM CLR 34/19 A2992 RMK AO2 T03410186
KETN 152255Z AUTO 16011KT 10SM SCT065 34/19 A2993 RMK AO2 T03410189
KETN 152235Z AUTO 15009KT 10SM SCT065 34/19 A2993 RMK AO2 T03410194
KETN 152215Z AUTO 15008KT 130V190 10SM SCT065 34/20 A2994 RMK AO2 T03420196
KETN 152155Z AUTO 17006KT 3SM HZ SCT070 34/19 A2994 RMK AO2 T03420194
KETN 152135Z AUTO 15010KT 10SM SCT060 34/20 A2995 RMK AO2 T03440198
KETN 152115Z AUTO 18007G14KT 10SM CLR 34/19 A2995 RMK AO2 T03430192
KETN 152055Z AUTO 18007KT 160V220 10SM CLR 34/20 A2996 RMK AO2 T03360202
KETN 152035Z AUTO 20011KT 120V220 10SM CLR 34/20 A2996 RMK AO2 T03390204
KETN 152015Z AUTO 20008KT 10SM CLR 33/20 A2997 RMK AO2 T03340202
KETN 151955Z AUTO 21003KT 10SM CLR 33/20 A2997 RMK AO2 T03330204
KETN 151935Z AUTO 19008KT 160V220 10SM CLR 33/21 A2998 RMK AO2 T03310208
KETN 151915Z AUTO 23005G14KT 10SM CLR 33/21 A2999 RMK AO2 T03260207
KETN 151855Z AUTO 21007G14KT 10SM CLR 32/21 A3000 RMK AO2 T03240209
KETN 151835Z AUTO 19009G16KT 10SM CLR 32/21 A3000 RMK AO2 T03230209
KETN 151815Z AUTO 18011G17KT 10SM CLR 32/21 A3000 RMK AO2 T03180209
KETN 151755Z AUTO 19010G15KT 10SM CLR 32/21 A3001 RMK AO2 T03160211 10318 20214
KETN 151735Z AUTO 19009KT 10SM CLR 31/21 A3001 RMK AO2 T03060207
KETN 151715Z AUTO 22009G14KT 10SM CLR 31/21 A3002 RMK AO2 T03070209
KETN 151655Z AUTO 19009G16KT 10SM CLR 30/21 A3002 RMK AO2 T03030208
KETN 151635Z AUTO 19012KT 10SM CLR 30/21 A3002 RMK AO2 T02980207
KETN 151615Z AUTO 19011KT 10SM CLR 29/21 A3002 RMK AO2 T02920206
KETN 151555Z AUTO 20011G16KT 10SM CLR 28/21 A3002 RMK AO2 T02840206
KETN 151535Z AUTO 21013KT 10SM CLR 28/20 A3002 RMK AO2 T02780202
KETN 151515Z AUTO 21013G18KT 10SM CLR 27/20 A3002 RMK AO2 T02710204
KETN 151455Z AUTO 20012KT 10SM CLR 26/20 A3002 RMK AO2 T02640203
KETN 151435Z AUTO 20010G15KT 10SM CLR 26/20 A3002 RMK AO2 T02600204
KETN 151415Z AUTO 20009G15KT 10SM CLR 25/20 A3002 RMK AO2 T02500200
KETN 151355Z AUTO 19008G14KT 10SM CLR 24/20 A3001 RMK AO2 T02440198
KETN 151335Z AUTO 20008G16KT 10SM CLR 24/20 A3000 RMK AO2 T02400198
KETN 151315Z AUTO 19007KT 10SM CLR 23/20 A3000 RMK AO2 T02340197
KETN 151255Z AUTO 18008KT 10SM CLR 23/20 A2999 RMK AO2 T02260196
KETN 151235Z AUTO 17004KT 10SM CLR 22/20 A2998 RMK AO2 T02190196
KETN 151215Z AUTO 18006KT 10SM CLR 22/20 A2998 RMK AO2 T02170195
KETN 151155Z AUTO 17005KT 10SM CLR 22/20 A2998 RMK AO2 T02170196 10237 20203
KETN 151135Z AUTO 17006KT 10SM CLR 22/20 A2997 RMK AO2 T02180198
KETN 151115Z AUTO 17006KT 10SM CLR 22/20 A2997 RMK AO2 T02200199
KETN 151055Z AUTO 17005KT 10SM CLR 22/20 A2996 RMK AO2 T02210199
KETN 151035Z AUTO 17005KT 10SM CLR 22/20 A2996 RMK AO2 T02220200
KETN 151015Z AUTO 17006KT 10SM CLR 22/20 A2995 RMK AO2 LTG DSNT NW T02190199
KETN 150955Z AUTO 15005KT 10SM CLR 22/20 A2996 RMK AO2 LTG DSNT NW T02200198
KETN 150935Z AUTO 16006KT 10SM CLR 22/20 A2996 RMK AO2 LTG DSNT NE T02160195
KETN 150915Z AUTO 16004KT 10SM CLR 21/19 A2997 RMK AO2 T02150192
KETN 150855Z AUTO 17003KT 10SM CLR 21/19 A2997 RMK AO2 T02110190
KETN 150835Z AUTO 17005KT 10SM CLR 22/19 A2996 RMK AO2 T02200191
KETN 150815Z AUTO 14004KT 10SM CLR 22/19 A2997 RMK AO2 T02200188
KETN 150755Z AUTO 16004KT 10SM CLR 22/19 A2997 RMK AO2 T02210188
KETN 150735Z AUTO 12003KT 10SM CLR 22/19 A2997 RMK AO2 T02240186
KETN 150715Z AUTO 14004KT 10SM CLR 21/19 A2997 RMK AO2 T02140186
KETN 150655Z AUTO 16003KT 10SM CLR 21/18 A2995 RMK AO2 T02110185
KETN 150635Z AUTO 01003KT 10SM CLR 21/19 A2995 RMK AO2 T02120186
KETN 150615Z AUTO 00000KT 10SM CLR 22/19 A2994 RMK AO2 T02160187
KETN 150555Z AUTO 18005KT 10SM CLR 23/18 A2993 RMK AO2 T02310185 10313 20210
KETN 150535Z AUTO 00000KT 10SM CLR 21/19 A2994 RMK AO2 T02130185
KETN 150515Z AUTO 18004KT 10SM CLR 23/18 A2993 RMK AO2 T02310184
KETN 150455Z AUTO 18005KT 10SM CLR 22/19 A2994 RMK AO2 T02210188
KETN 150435Z AUTO 00000KT 10SM CLR 21/19 A2995 RMK AO2 T02120187
KETN 150415Z AUTO 00000KT 10SM CLR 21/19 A2994 RMK AO2 T02150188
KETN 150355Z AUTO 00000KT 10SM CLR 22/19 A2994 RMK AO2 T02210189
KETN 150335Z AUTO 18003KT 10SM CLR 25/18 A2993 RMK AO2 T02470182
KETN 150315Z AUTO 17005KT 10SM CLR 26/18 A2993 RMK AO2 T02580178
KETN 150255Z AUTO 18005KT 10SM CLR 25/18 A2992 RMK AO2 T02540180
KETN 150235Z AUTO 18004KT 10SM CLR 24/19 A2992 RMK AO2 T02360190
KETN 150215Z AUTO 00000KT 10SM CLR 24/18 A2993 RMK AO2 T02370185
KETN 150155Z AUTO 00000KT 10SM CLR 25/18 A2992 RMK AO2 T02550181
KETN 150135Z AUTO 16003KT 10SM CLR 27/17 A2992 RMK AO2 T02720174
KETN 150115Z AUTO 18006KT 10SM CLR 29/17 A2992 RMK AO2 T02860168
KETN 150055Z AUTO 18007KT 10SM CLR 29/16 A2991 RMK AO2 T02950162
KETN 150035Z AUTO 19011G14KT 10SM CLR 30/15 A2991 RMK AO2 T03020154
KETN 150015Z AUTO 19012KT 10SM CLR 31/15 A2990 RMK AO2 T03090149
KETN 142355Z AUTO 19012KT 10SM CLR 31/15 A2991 RMK AO2 T03140152 10322 20273 403220204
KETN 142335Z AUTO 18015G20KT 10SM CLR 32/16 A2991 RMK AO2 T03160158
KETN 142315Z AUTO 16016G19KT 10SM CLR 32/17 A2991 RMK AO2 T03180173
KETN 142255Z AUTO 17010G21KT 10SM CLR 32/18 A2992 RMK AO2 T03170183
KETN 142235Z AUTO 19012KT 10SM CLR 32/19 A2992 RMK AO2 T03200194
KETN 142215Z AUTO 18016KT 10SM CLR 31/19 A2993 RMK AO2 T03150192
KETN 142155Z AUTO 17013G19KT 10SM SCT050 SCT060 32/20 A2993 RMK AO2 T03170199
KETN 142135Z AUTO 18011G17KT 10SM SCT050 BKN060 31/20 A2993 RMK AO2 T03130200
KETN 142115Z AUTO 18013G20KT 10SM SCT046 32/20 A2994 RMK AO2 T03190204
KETN 142055Z AUTO 16016KT 10SM BKN046 BKN055 32/21 A2994 RMK AO2 T03180208
KETN 142035Z AUTO 17009G17KT 10SM BKN046 BKN050 30/20 A2995 RMK AO2 T03050202
KETN 142015Z AUTO 17009G18KT 10SM BKN042 BKN048 31/21 A2995 RMK AO2 T03060207
KETN 141955Z AUTO 18013G21KT 10SM SCT040 30/20 A2996 RMK AO2 T03020204
KETN 141935Z AUTO 17011G17KT 10SM SCT040 30/21 A2996 RMK AO2 T03040209
KETN 141915Z AUTO 18014G18KT 10SM SCT035 30/21 A2997 RMK AO2 T02960207
KETN 141855Z AUTO 18013G17KT 10SM SCT034 30/21 A2997 RMK AO2 T03000211
KETN 141835Z AUTO 18011G16KT 10SM CLR 29/20 A2997 RMK AO2 T02850204
KETN 141815Z AUTO 18012KT 10SM SCT120 28/21 A2998 RMK AO2 LTG DSNT NE T02760207
KETN 141800Z AUTO 17010KT 10SM SCT120 27/21 A2998 RMK AO2 LTG DSNT NE T02740208
KETN 141735Z AUTO 19013G17KT 10SM CLR 27/20 A2999 RMK AO2 T02680201
KETN 141715Z AUTO 18014G20KT 10SM CLR 27/20 A2999 RMK AO2 T02690204